DZH101 DAAG-DAOO
Flight info
| Callsign | DZH101 |
|---|---|
| Flight time | 0h 55m |
| Altitude | 28000 |
| Route | CHE1D DAHRA UA411 MOS |
| Aircraft | B738/M-SDE2E3FGHIRWXY/LB1 |
Departure
| Time | 2026-05-04 16:44 |
|---|---|
| Airport | Houari Boumediene Airport (DAAG) |
Arrival
| Time | 2026-05-04 17:39 |
|---|---|
| Airport | Oran Es-Sénia (Ahmed Ben Bella) International Airport (DAOO) |
| Time | Latitude | Longitude | Altitude | Speed | Heading |
|---|---|---|---|---|---|
| 2026-05-04 16:07 | 36.69718 | 3.19815 | 69 ft | 0 kts | 271° |
| 2026-05-04 16:07 | 36.69845 | 3.19924 | 61 ft | 0 kts | 1° |
| 2026-05-04 16:28 | 36.69827 | 3.19924 | 61 ft | 3 kts | 1° |
| 2026-05-04 16:29 | 36.69747 | 3.19913 | 63 ft | 3 kts | 19° |
| 2026-05-04 16:30 | 36.69745 | 3.19927 | 65 ft | 3 kts | 61° |
| 2026-05-04 16:31 | 36.69749 | 3.19974 | 65 ft | 3 kts | 105° |
| 2026-05-04 16:31 | 36.69716 | 3.19991 | 69 ft | 0 kts | 182° |
| 2026-05-04 16:35 | 36.69592 | 3.19986 | 69 ft | 12 kts | 181° |
| 2026-05-04 16:35 | 36.69399 | 3.19899 | 65 ft | 10 kts | 193° |
| 2026-05-04 16:36 | 36.69333 | 3.19893 | 69 ft | 9 kts | 195° |
| 2026-05-04 16:36 | 36.69311 | 3.19717 | 69 ft | 16 kts | 272° |
| 2026-05-04 16:37 | 36.69320 | 3.19369 | 62 ft | 23 kts | 272° |
| 2026-05-04 16:37 | 36.69325 | 3.19171 | 70 ft | 23 kts | 272° |
| 2026-05-04 16:37 | 36.69333 | 3.18792 | 68 ft | 21 kts | 271° |
| 2026-05-04 16:38 | 36.69341 | 3.18434 | 70 ft | 20 kts | 271° |
| 2026-05-04 16:39 | 36.69354 | 3.17938 | 70 ft | 18 kts | 272° |
| 2026-05-04 16:39 | 36.69361 | 3.17635 | 66 ft | 17 kts | 271° |
| 2026-05-04 16:40 | 36.69368 | 3.17353 | 70 ft | 16 kts | 272° |
| 2026-05-04 16:40 | 36.69361 | 3.17129 | 64 ft | 11 kts | 238° |
| 2026-05-04 16:41 | 36.69230 | 3.17100 | 84 ft | 7 kts | 177° |
| 2026-05-04 16:41 | 36.69203 | 3.17134 | 81 ft | 0 kts | 98° |
| 2026-05-04 16:43 | 36.69203 | 3.17186 | 79 ft | 5 kts | 91° |
| 2026-05-04 16:43 | 36.69199 | 3.17357 | 78 ft | 50 kts | 91° |
| 2026-05-04 16:44 | 36.69253 | 3.22041 | 1447 ft | 168 kts | 68° |
| 2026-05-04 16:45 | 36.70277 | 3.23413 | 2327 ft | 176 kts | 19° |
| 2026-05-04 16:46 | 36.74251 | 3.20770 | 3562 ft | 232 kts | 310° |
| 2026-05-04 16:46 | 36.75063 | 3.16977 | 4380 ft | 246 kts | 255° |
| 2026-05-04 16:47 | 36.74309 | 3.12720 | 5834 ft | 250 kts | 255° |
| 2026-05-04 16:47 | 36.73620 | 3.08371 | 7172 ft | 260 kts | 256° |
| 2026-05-04 16:48 | 36.72630 | 3.01780 | 9619 ft | 257 kts | 257° |
| 2026-05-04 16:48 | 36.72308 | 2.99611 | 10236 ft | 257 kts | 257° |
| 2026-05-04 16:49 | 36.71594 | 2.94841 | 10676 ft | 303 kts | 257° |
| 2026-05-04 16:49 | 36.70773 | 2.89347 | 11239 ft | 335 kts | 257° |
| 2026-05-04 16:50 | 36.69915 | 2.83578 | 12599 ft | 340 kts | 258° |
| 2026-05-04 16:50 | 36.69045 | 2.77743 | 14028 ft | 345 kts | 258° |
| 2026-05-04 16:51 | 36.68154 | 2.71808 | 15334 ft | 352 kts | 258° |
| 2026-05-04 16:51 | 36.67701 | 2.68799 | 16004 ft | 355 kts | 258° |
| 2026-05-04 16:51 | 36.66781 | 2.62702 | 17336 ft | 361 kts | 258° |
| 2026-05-04 16:52 | 36.65840 | 2.56487 | 18498 ft | 369 kts | 258° |
| 2026-05-04 16:52 | 36.65361 | 2.53334 | 19051 ft | 372 kts | 258° |
| 2026-05-04 16:53 | 36.64393 | 2.46977 | 20197 ft | 376 kts | 258° |
| 2026-05-04 16:53 | 36.62916 | 2.37325 | 21785 ft | 383 kts | 258° |
| 2026-05-04 16:54 | 36.62414 | 2.34058 | 22286 ft | 386 kts | 258° |
| 2026-05-04 16:55 | 36.60346 | 2.20720 | 24061 ft | 397 kts | 256° |
| 2026-05-04 16:55 | 36.58495 | 2.14259 | 24841 ft | 399 kts | 246° |
| 2026-05-04 16:56 | 36.56291 | 2.07874 | 25530 ft | 403 kts | 247° |
| 2026-05-04 16:56 | 36.53034 | 1.98335 | 27066 ft | 396 kts | 247° |
| 2026-05-04 16:57 | 36.51964 | 1.95187 | 27584 ft | 394 kts | 247° |
| 2026-05-04 16:57 | 36.49850 | 1.88970 | 28003 ft | 395 kts | 247° |
| 2026-05-04 16:58 | 36.45574 | 1.76433 | 28006 ft | 395 kts | 247° |
| 2026-05-04 16:59 | 36.43424 | 1.70153 | 27980 ft | 395 kts | 247° |
| 2026-05-04 17:00 | 36.39126 | 1.57629 | 27996 ft | 394 kts | 247° |
| 2026-05-04 17:00 | 36.35914 | 1.48290 | 27999 ft | 393 kts | 247° |
| 2026-05-04 17:01 | 36.33818 | 1.42039 | 27999 ft | 393 kts | 248° |
| 2026-05-04 17:01 | 36.31728 | 1.35783 | 27992 ft | 392 kts | 248° |
| 2026-05-04 17:02 | 36.29636 | 1.29540 | 27998 ft | 392 kts | 247° |
| 2026-05-04 17:02 | 36.27535 | 1.23294 | 27994 ft | 393 kts | 248° |
| 2026-05-04 17:03 | 36.26485 | 1.20178 | 27996 ft | 389 kts | 248° |
| 2026-05-04 17:03 | 36.25458 | 1.17136 | 27853 ft | 378 kts | 247° |
| 2026-05-04 17:03 | 36.23462 | 1.11230 | 27020 ft | 365 kts | 248° |
| 2026-05-04 17:04 | 36.21514 | 1.05479 | 26066 ft | 359 kts | 247° |
| 2026-05-04 17:04 | 36.19593 | 0.99814 | 25111 ft | 355 kts | 247° |
| 2026-05-04 17:05 | 36.17690 | 0.94215 | 24131 ft | 351 kts | 247° |
| 2026-05-04 17:05 | 36.15741 | 0.88493 | 22252 ft | 367 kts | 247° |
| 2026-05-04 17:06 | 36.13728 | 0.82593 | 21211 ft | 384 kts | 247° |
| 2026-05-04 17:06 | 36.12681 | 0.79530 | 20668 ft | 388 kts | 247° |
| 2026-05-04 17:07 | 36.10601 | 0.73450 | 19609 ft | 379 kts | 246° |
| 2026-05-04 17:07 | 36.09923 | 0.71472 | 19267 ft | 376 kts | 246° |
| 2026-05-04 17:07 | 36.08567 | 0.67518 | 18570 ft | 371 kts | 246° |
| 2026-05-04 17:07 | 36.07562 | 0.64592 | 18038 ft | 369 kts | 246° |
| 2026-05-04 17:08 | 36.06564 | 0.61689 | 17543 ft | 365 kts | 246° |
| 2026-05-04 17:08 | 36.04597 | 0.55974 | 16628 ft | 358 kts | 246° |
| 2026-05-04 17:08 | 36.03633 | 0.53179 | 16200 ft | 347 kts | 246° |
| 2026-05-04 17:09 | 36.02709 | 0.50497 | 15779 ft | 332 kts | 246° |
| 2026-05-04 17:09 | 36.01834 | 0.47962 | 15386 ft | 318 kts | 246° |
| 2026-05-04 17:09 | 36.00971 | 0.45465 | 15013 ft | 306 kts | 246° |
| 2026-05-04 17:10 | 35.99350 | 0.40778 | 14305 ft | 292 kts | 246° |
| 2026-05-04 17:10 | 35.96987 | 0.33964 | 13215 ft | 283 kts | 246° |
| 2026-05-04 17:11 | 35.96216 | 0.31742 | 12854 ft | 281 kts | 246° |
| 2026-05-04 17:11 | 35.95443 | 0.29516 | 12509 ft | 283 kts | 246° |
| 2026-05-04 17:11 | 35.93875 | 0.25008 | 11795 ft | 296 kts | 246° |
| 2026-05-04 17:12 | 35.93058 | 0.22661 | 11382 ft | 298 kts | 246° |
| 2026-05-04 17:12 | 35.91433 | 0.17995 | 10557 ft | 294 kts | 245° |
| 2026-05-04 17:13 | 35.88805 | 0.11651 | 10184 ft | 263 kts | 230° |
| 2026-05-04 17:14 | 35.85466 | 0.06671 | 9618 ft | 245 kts | 235° |
| 2026-05-04 17:14 | 35.84693 | 0.04809 | 9327 ft | 244 kts | 246° |
| 2026-05-04 17:14 | 35.83432 | 0.00942 | 8740 ft | 243 kts | 247° |
| 2026-05-04 17:15 | 35.82799 | -0.00989 | 8439 ft | 243 kts | 247° |
| 2026-05-04 17:15 | 35.81505 | -0.04887 | 7855 ft | 250 kts | 248° |
| 2026-05-04 17:16 | 35.80183 | -0.08855 | 7245 ft | 250 kts | 248° |
| 2026-05-04 17:16 | 35.78202 | -0.14745 | 6372 ft | 246 kts | 248° |
| 2026-05-04 17:17 | 35.77546 | -0.16690 | 6066 ft | 245 kts | 247° |
| 2026-05-04 17:17 | 35.75647 | -0.22310 | 5620 ft | 226 kts | 247° |
| 2026-05-04 17:18 | 35.75055 | -0.24059 | 5509 ft | 218 kts | 248° |
| 2026-05-04 17:18 | 35.73925 | -0.27394 | 5327 ft | 208 kts | 248° |
| 2026-05-04 17:19 | 35.72802 | -0.30704 | 5103 ft | 215 kts | 248° |
| 2026-05-04 17:19 | 35.71636 | -0.34134 | 4638 ft | 218 kts | 248° |
| 2026-05-04 17:20 | 35.70458 | -0.37603 | 4130 ft | 221 kts | 248° |
| 2026-05-04 17:20 | 35.69275 | -0.41078 | 3645 ft | 216 kts | 248° |
| 2026-05-04 17:20 | 35.68704 | -0.42752 | 3414 ft | 211 kts | 247° |
| 2026-05-04 17:21 | 35.67608 | -0.45925 | 2944 ft | 195 kts | 247° |
| 2026-05-04 17:21 | 35.66600 | -0.48855 | 2407 ft | 175 kts | 248° |
| 2026-05-04 17:22 | 35.66146 | -0.50183 | 2178 ft | 162 kts | 248° |
| 2026-05-04 17:22 | 35.65725 | -0.51417 | 1975 ft | 152 kts | 248° |
| 2026-05-04 17:23 | 35.64601 | -0.54721 | 1435 ft | 137 kts | 249° |
| 2026-05-04 17:23 | 35.64232 | -0.55809 | 1240 ft | 139 kts | 247° |
| 2026-05-04 17:23 | 35.63484 | -0.58019 | 858 ft | 141 kts | 246° |
| 2026-05-04 17:24 | 35.63120 | -0.59094 | 689 ft | 135 kts | 246° |
| 2026-05-04 17:24 | 35.62038 | -0.62270 | 427 ft | 129 kts | 246° |
| 2026-05-04 17:25 | 35.61718 | -0.63311 | 1225 ft | 137 kts | 250° |
| 2026-05-04 17:25 | 35.60943 | -0.65827 | 2254 ft | 179 kts | 249° |
| 2026-05-04 17:26 | 35.59958 | -0.68846 | 2187 ft | 193 kts | 250° |
| 2026-05-04 17:26 | 35.60639 | -0.72839 | 2940 ft | 189 kts | 332° |
| 2026-05-04 17:27 | 35.63422 | -0.72507 | 3981 ft | 223 kts | 21° |
| 2026-05-04 17:27 | 35.66393 | -0.70886 | 4944 ft | 246 kts | 20° |
| 2026-05-04 17:28 | 35.69862 | -0.68985 | 5004 ft | 284 kts | 21° |
| 2026-05-04 17:29 | 35.74180 | -0.64447 | 5003 ft | 283 kts | 68° |
| 2026-05-04 17:29 | 35.76150 | -0.57491 | 5007 ft | 292 kts | 71° |
| 2026-05-04 17:30 | 35.78124 | -0.50473 | 4654 ft | 284 kts | 71° |
| 2026-05-04 17:31 | 35.79365 | -0.46109 | 4448 ft | 257 kts | 71° |
| 2026-05-04 17:31 | 35.79957 | -0.39758 | 3549 ft | 248 kts | 91° |
| 2026-05-04 17:32 | 35.79647 | -0.35624 | 3278 ft | 238 kts | 121° |
| 2026-05-04 17:33 | 35.76189 | -0.32681 | 3277 ft | 230 kts | 173° |
| 2026-05-04 17:33 | 35.74650 | -0.32821 | 3280 ft | 221 kts | 205° |
| 2026-05-04 17:34 | 35.71370 | -0.36272 | 3277 ft | 192 kts | 226° |
| 2026-05-04 17:34 | 35.70463 | -0.37428 | 3280 ft | 182 kts | 237° |
| 2026-05-04 17:35 | 35.69077 | -0.41606 | 3294 ft | 174 kts | 247° |
| 2026-05-04 17:35 | 35.68148 | -0.44312 | 3169 ft | 172 kts | 248° |
| 2026-05-04 17:35 | 35.67684 | -0.45671 | 2947 ft | 171 kts | 248° |
| 2026-05-04 17:36 | 35.67234 | -0.46988 | 2729 ft | 164 kts | 248° |
| 2026-05-04 17:36 | 35.66801 | -0.48261 | 2519 ft | 158 kts | 248° |
| 2026-05-04 17:36 | 35.66386 | -0.49480 | 2330 ft | 152 kts | 249° |
| 2026-05-04 17:36 | 35.65979 | -0.50677 | 2115 ft | 152 kts | 248° |
| 2026-05-04 17:37 | 35.65576 | -0.51859 | 1938 ft | 149 kts | 248° |
| 2026-05-04 17:37 | 35.65184 | -0.53009 | 1719 ft | 143 kts | 248° |
| 2026-05-04 17:37 | 35.64808 | -0.54113 | 1530 ft | 137 kts | 248° |
| 2026-05-04 17:37 | 35.64438 | -0.55194 | 1333 ft | 138 kts | 249° |
| 2026-05-04 17:38 | 35.64076 | -0.56273 | 1163 ft | 139 kts | 246° |
| 2026-05-04 17:38 | 35.63699 | -0.57373 | 962 ft | 138 kts | 247° |
| 2026-05-04 17:38 | 35.63332 | -0.58459 | 759 ft | 138 kts | 245° |
| 2026-05-04 17:38 | 35.62969 | -0.59535 | 605 ft | 137 kts | 245° |
| 2026-05-04 17:39 | 35.62243 | -0.61671 | 307 ft | 127 kts | 243° |
| 2026-05-04 17:39 | 35.61979 | -0.62429 | 308 ft | 66 kts | 247° |
| 2026-05-04 17:39 | 35.61858 | -0.62785 | 307 ft | 26 kts | 247° |
| 2026-05-04 17:40 | 35.61777 | -0.62863 | 309 ft | 14 kts | 185° |
| 2026-05-04 17:40 | 35.61688 | -0.62826 | 310 ft | 13 kts | 151° |
| 2026-05-04 17:40 | 35.61626 | -0.62748 | 309 ft | 13 kts | 118° |
| 2026-05-04 17:40 | 35.61615 | -0.62644 | 309 ft | 13 kts | 75° |
| 2026-05-04 17:41 | 35.61648 | -0.62546 | 309 ft | 13 kts | 68° |
| 2026-05-04 17:41 | 35.61688 | -0.62426 | 308 ft | 18 kts | 66° |
| 2026-05-04 17:41 | 35.61742 | -0.62269 | 309 ft | 21 kts | 67° |
| 2026-05-04 17:41 | 35.61797 | -0.62110 | 309 ft | 20 kts | 67° |
| 2026-05-04 17:42 | 35.61850 | -0.61955 | 309 ft | 19 kts | 67° |
| 2026-05-04 17:42 | 35.61901 | -0.61806 | 309 ft | 19 kts | 68° |
| 2026-05-04 17:42 | 35.61950 | -0.61661 | 308 ft | 18 kts | 67° |
| 2026-05-04 17:42 | 35.61998 | -0.61521 | 309 ft | 17 kts | 67° |
| 2026-05-04 17:43 | 35.62044 | -0.61387 | 309 ft | 17 kts | 67° |
| 2026-05-04 17:43 | 35.62088 | -0.61256 | 309 ft | 16 kts | 66° |
| 2026-05-04 17:43 | 35.62131 | -0.61132 | 309 ft | 15 kts | 67° |
| 2026-05-04 17:43 | 35.62149 | -0.61025 | 309 ft | 10 kts | 119° |
| 2026-05-04 17:44 | 35.62102 | -0.60968 | 309 ft | 10 kts | 113° |
| 2026-05-04 17:44 | 35.62113 | -0.60891 | 309 ft | 9 kts | 68° |
| 2026-05-04 17:44 | 35.62138 | -0.60818 | 308 ft | 9 kts | 67° |
| 2026-05-04 17:44 | 35.62162 | -0.60748 | 309 ft | 9 kts | 70° |
| 2026-05-04 17:45 | 35.62142 | -0.60700 | 309 ft | 6 kts | 165° |
| 2026-05-04 17:45 | 35.62110 | -0.60704 | 309 ft | 4 kts | 200° |
| 2026-05-04 17:45 | 35.62100 | -0.60708 | 309 ft | 0 kts | 202° |